Home > Products > Valid Products > TAF

000
FTUS43 KEAX 271700
TAFSTJ
TAF
KSTJ 271720Z 2718/2818 08006KT P6SM BKN120
     FM280400 10005KT P6SM OVC050
     FM281200 12006KT P6SM OVC025
     FM281600 14008KT 3SM -SN OVC015=



000
FTUS43 KEAX 271700
TAFMCI
TAF
KMCI 271720Z 2718/2818 08006KT P6SM BKN120
     FM280400 10008KT P6SM OVC050
     FM281200 12008KT P6SM OVC025
     FM281600 14009KT 3SM -SN OVC012=



000
FTUS43 KEAX 271700
TAFMKC
TAF
KMKC 271720Z 2718/2818 08005KT P6SM BKN120
     FM280400 09005KT P6SM OVC050
     FM281200 11005KT P6SM OVC025
     FM281600 14007KT 3SM -SN OVC015=



000
FTUS43 KEAX 271100
TAFMCI
TAF
KMCI 271120Z 2712/2812 VRB05KT P6SM BKN250
     FM272100 10006KT P6SM BKN100
     FM280500 11008KT P6SM OVC050=



000
FTUS43 KEAX 271100
TAFSTJ
TAF
KSTJ 271120Z 2712/2812 VRB04KT P6SM BKN250
     FM272200 10005KT P6SM BKN100
     FM280500 10004KT P6SM OVC050=



000
FTUS43 KEAX 271100
TAFMKC
TAF
KMKC 271120Z 2712/2812 VRB04KT P6SM BKN250
     FM272000 09006KT P6SM BKN100
     FM280400 08006KT P6SM OVC050=



000
FTUS43 KEAX 270500
TAFMCI
TAF
KMCI 270521Z 2706/2806 01009KT P6SM SKC
     FM271500 04006KT P6SM BKN150
     FM280100 09006KT P6SM BKN060=



000
FTUS43 KEAX 270500
TAFMKC
TAF
KMKC 270521Z 2706/2806 01008KT P6SM SKC
     FM271500 04005KT P6SM BKN150
     FM280100 09006KT P6SM BKN060=



000
FTUS43 KEAX 270500
TAFMCI
TAF
KMCI 270521Z 2706/2806 01009KT P6SM SKC
     FM271500 04006KT P6SM BKN150
     FM280100 09006KT P6SM BKN060=



000
FTUS43 KEAX 270500
TAFSTJ
TAF
KSTJ 270521Z 2706/2806 01006KT P6SM SKC
     FM271600 04005KT P6SM BKN150
     FM280400 09006KT P6SM BKN060=



000
FTUS43 KEAX 262300
TAFMKC
TAF
KMKC 262320Z 2700/2724 36009KT P6SM SKC
     FM271200 09004KT P6SM SKC=



000
FTUS43 KEAX 262300
TAFSTJ
TAF
KSTJ 262320Z 2700/2724 01010KT P6SM FEW035
     FM271100 09005KT P6SM SKC=



000
FTUS43 KEAX 262300
TAFMCI
TAF
KMCI 262320Z 2700/2724 36010KT P6SM SKC
     FM271200 09005KT P6SM SKC=



000
FTUS43 KEAX 262300
TAFMKC
TAF
KMKC 262320Z 2700/2724 36009KT P6SM SKC
     FM271200 09004KT P6SM SKC=



000
FTUS43 KEAX 262300
TAFSTJ
TAF
KSTJ 262320Z 2700/2724 01010KT P6SM FEW035
     FM271100 09005KT P6SM SKC=



000
FTUS43 KEAX 262300
TAFMCI
TAF
KMCI 262320Z 2700/2724 36010KT P6SM SKC
     FM271200 09005KT P6SM SKC=



000
FTUS43 KEAX 261700
TAFMKC
TAF
KMKC 261733Z 2618/2718 36015KT P6SM SKC
     FM262000 36013KT P6SM FEW035
     FM270000 02009KT P6SM SCT100=



000
FTUS43 KEAX 261700
TAFSTJ
TAF
KSTJ 261733Z 2618/2718 35015KT P6SM FEW025
     FM262000 36014KT P6SM SCT035
     FM270000 02010KT P6SM SCT100=



000
FTUS43 KEAX 261700
TAFMCI
TAF
KMCI 261733Z 2618/2718 36015KT P6SM FEW025
     FM262000 36014KT P6SM FEW035
     FM270000 02010KT P6SM SCT100=



000
FTUS43 KEAX 261700
TAFMKC
TAF
KMKC 261733Z 2618/2718 36015KT P6SM SKC
     FM262000 36013KT P6SM FEW035
     FM270000 02009KT P6SM SCT100=



000
FTUS43 KEAX 261700
TAFMCI
TAF
KMCI 261733Z 2618/2718 36015KT P6SM FEW025
     FM262000 36014KT P6SM FEW035
     FM270000 02010KT P6SM SCT100=



000
FTUS43 KEAX 261100
TAFMCI
TAF
KMCI 261120Z 2612/2712 35018G25KT P6SM SCT020
     FM261600 36015G23KT P6SM SCT030
     FM270000 01011KT P6SM SKC
     FM270900 01006KT P6SM SKC=



000
FTUS43 KEAX 261100
TAFSTJ
TAF
KSTJ 261120Z 2612/2712 35018G25KT P6SM BKN120
     FM261400 35018G25KT P6SM SCT025
     FM262300 36012KT P6SM SKC
     FM270800 35006KT P6SM SKC=



000
FTUS43 KEAX 261100
TAFMKC
TAF
KMKC 261120Z 2612/2712 36014G22KT P6SM SCT025
     FM261600 36013G20KT P6SM SCT030
     FM270500 01006KT P6SM SKC=



000
FTUS43 KEAX 261100
TAFMCI
TAF
KMCI 261120Z 2612/2712 35018G25KT P6SM SCT020
     FM261600 36015G23KT P6SM SCT030
     FM270000 01011KT P6SM SKC
     FM270900 01006KT P6SM SKC=



000
FTUS43 KEAX 261100
TAFSTJ
TAF
KSTJ 261120Z 2612/2712 35018G25KT P6SM BKN120
     FM261400 35018G25KT P6SM SCT025
     FM262300 36012KT P6SM SKC
     FM270800 35006KT P6SM SKC=



000
FTUS43 KEAX 260500
TAFMCI
TAF
KMCI 260539Z 2606/2706 36020G29KT P6SM VCSH OVC020
      TEMPO 2606/2609 SCT020
     FM261200 36015G23KT P6SM BKN020
     FM261600 36013G21KT P6SM SCT030
     FM262300 01011KT P6SM SKC=



000
FTUS43 KEAX 260500
TAFSTJ
TAF
KSTJ 260539Z 2606/2706 36020G28KT P6SM VCSH BKN022
      TEMPO 2606/2608 SCT022
     FM261000 36018G25KT P6SM BKN022
     FM261400 36015G23KT P6SM SCT025
     FM262300 01012KT P6SM SKC=



000
FTUS43 KEAX 260500
TAFMKC
TAF
KMKC 260539Z 2606/2706 35018G27KT P6SM VCSH OVC021
      TEMPO 2606/2609 SCT021
     FM261200 36015G23KT P6SM BKN025
     FM261600 36012G20KT P6SM SCT030
     FM262300 01008KT P6SM SKC=



000
FTUS43 KEAX 260500
TAFMCI
TAF
KMCI 260539Z 2606/2706 36020G29KT P6SM VCSH OVC020
      TEMPO 2606/2609 SCT020
     FM261200 36015G23KT P6SM BKN020
     FM261600 36013G21KT P6SM SCT030
     FM262300 01011KT P6SM SKC=



000
FTUS43 KEAX 260500
TAFMKC
TAF
KMKC 260539Z 2606/2706 35018G27KT P6SM VCSH OVC021
      TEMPO 2606/2609 SCT021
     FM261200 36015G23KT P6SM BKN025
     FM261600 36012G20KT P6SM SCT030
     FM262300 01008KT P6SM SKC=



000
FTUS43 KEAX 260500
TAFSTJ
TAF
KSTJ 260539Z 2606/2706 36020G28KT P6SM VCSH BKN022
      TEMPO 2606/2608 SCT022
     FM261000 36018G25KT P6SM BKN022
     FM261400 36015G23KT P6SM SCT025
     FM262300 01012KT P6SM SKC=



000
FTUS43 KEAX 260500 AAB
TAFMKC
TAF AMD
KMKC 260502Z 2605/2624 35018G32KT P6SM VCSH OVC021
     FM261200 36015G23KT P6SM BKN025
     FM261800 36013G21KT P6SM SCT030=



000
FTUS43 KEAX 260500 AAB
TAFMKC
TAF AMD
KMKC 260502Z 2605/2624 35018G32KT P6SM VCSH OVC021
     FM261200 36015G23KT P6SM BKN025
     FM261800 36013G21KT P6SM SCT030=



000
FTUS43 KEAX 260300 AAA
TAFMCI
TAF AMD
KMCI 260300Z 2603/2624 36022G31KT P6SM VCSH OVC020
     FM261200 36015G23KT P6SM BKN020
     FM261800 36013G21KT P6SM SCT030=



000
FTUS43 KEAX 260300 AAA
TAFMCI
TAF AMD
KMCI 260300Z 2603/2624 36022G31KT P6SM VCSH OVC020
     FM261200 36015G23KT P6SM BKN020
     FM261800 36013G21KT P6SM SCT030=



000
FTUS43 KEAX 252300
TAFMKC
TAF
KMKC 252334Z 2600/2624 34021G31KT P6SM -SN OVC018
      TEMPO 2600/2602 -RA
     FM260400 36022G30KT P6SM VCSH OVC015
     FM261200 36015G23KT P6SM BKN025
     FM261800 36013G21KT P6SM SCT030=



000
FTUS43 KEAX 252300
TAFSTJ
TAF
KSTJ 252334Z 2600/2624 35023G33KT P6SM -SN OVC013
      TEMPO 2600/2602 4SM -SN
     FM260200 36023G32KT P6SM VCSH OVC015
     FM261200 36018G25KT P6SM BKN020
     FM261800 36015G23KT P6SM SCT030=



000
FTUS43 KEAX 252300
TAFSTJ
TAF
KSTJ 252334Z 2600/2624 35023G33KT P6SM -SN OVC013
      TEMPO 2600/2602 4SM -SN
     FM260200 36023G32KT P6SM VCSH OVC015
     FM261200 36018G25KT P6SM BKN020
     FM261800 36015G23KT P6SM SCT030=



000
FTUS43 KEAX 252300
TAFMCI
TAF
KMCI 252334Z 2600/2624 34023G33KT 6SM -SN OVC014
      TEMPO 2600/2601 -RA
     FM260300 36022G31KT P6SM VCSH OVC015
     FM261200 36015G23KT P6SM BKN020
     FM261800 36013G21KT P6SM SCT030=



000
FTUS43 KEAX 252300
TAFMKC
TAF
KMKC 252334Z 2600/2624 34021G31KT P6SM -SN OVC018
      TEMPO 2600/2602 -RA
     FM260400 36022G30KT P6SM VCSH OVC015
     FM261200 36015G23KT P6SM BKN025
     FM261800 36013G21KT P6SM SCT030=



000
FTUS43 KEAX 251700
TAFSTJ
TAF
KSTJ 251720Z 2518/2618 24013KT P6SM SCT100
     FM252200 35020G29KT P6SM VCSH OVC018
      TEMPO 2522/2602 4SM -RASN BR
     FM260300 36022G30KT P6SM OVC015
     FM261600 35014KT P6SM BKN020=



000
FTUS43 KEAX 251700
TAFMCI
TAF
KMCI 251720Z 2518/2618 23014KT P6SM SCT100
     FM252300 34020G30KT P6SM VCSH OVC018
      TEMPO 2523/2603 4SM -RASN BR
     FM260400 36022G30KT P6SM OVC015
     FM261600 36012G20KT P6SM BKN020=



000
FTUS43 KEAX 251700
TAFMKC
TAF
KMKC 251720Z 2518/2618 23014KT P6SM SCT100
     FM260000 35018G28KT P6SM VCSH OVC020
      TEMPO 2600/2604 4SM -RASN BR BKN015
     FM260400 36022G30KT P6SM OVC018
     FM261600 36012G20KT P6SM BKN020=



000
FTUS43 KEAX 251700
TAFMCI
TAF
KMCI 251720Z 2518/2618 23014KT P6SM SCT100
     FM252300 34020G30KT P6SM VCSH OVC018
      TEMPO 2523/2603 4SM -RASN BR
     FM260400 36022G30KT P6SM OVC015
     FM261600 36012G20KT P6SM BKN020=



000
FTUS43 KEAX 251700
TAFMKC
TAF
KMKC 251720Z 2518/2618 23014KT P6SM SCT100
     FM260000 35018G28KT P6SM VCSH OVC020
      TEMPO 2600/2604 4SM -RASN BR BKN015
     FM260400 36022G30KT P6SM OVC018
     FM261600 36012G20KT P6SM BKN020=



000
FTUS43 KEAX 251100
TAFMKC
TAF
KMKC 251121Z 2512/2612 16005KT P6SM FEW050 BKN100
     FM251600 20012KT P6SM OVC060
     FM260000 25015KT 4SM -RASN BKN030
     FM260100 34016G25KT 2SM -SN SCT012 OVC020
     FM260400 36022G32KT P6SM OVC015=



000
FTUS43 KEAX 251100
TAFMCI
TAF
KMCI 251121Z 2512/2612 18008KT P6SM FEW050 BKN100
     FM251600 21012KT P6SM OVC060
     FM252300 25015KT 4SM -RASN BKN030
     FM260000 34016G25KT 2SM -SN SCT012 OVC020
     FM260400 36022G32KT P6SM OVC015=



000
FTUS43 KEAX 251100
TAFSTJ
TAF
KSTJ 251121Z 2512/2612 17006KT P6SM FEW040 BKN100
     FM251600 19013KT P6SM OVC060
     FM252200 24011KT 4SM -RASN OVC035
     FM252300 34016G25KT 2SM -SN SCT012 OVC020
     FM260200 36023G33KT P6SM OVC015=



000
FTUS43 KEAX 250500
TAFSTJ
TAF
KSTJ 250520Z 2506/2606 VRB05KT P6SM SKC
     FM251000 15008KT P6SM FEW040 SCT100
     FM251600 16013KT P6SM OVC060
     FM252200 17011KT P6SM VCSH OVC035
     FM260000 35016G25KT P6SM -SN OVC030=



000
FTUS43 KEAX 250500
TAFMKC
TAF
KMKC 250520Z 2506/2606 VRB05KT P6SM SKC
     FM251000 15008KT P6SM FEW040 SCT100
     FM251800 17012KT P6SM OVC060
     FM252300 18010KT P6SM VCSH OVC035
     FM260100 34015G24KT P6SM -SN OVC030=



000
FTUS43 KEAX 250500
TAFMCI
TAF
KMCI 250520Z 2506/2606 VRB05KT P6SM SKC
     FM251000 15008KT P6SM FEW050 SCT100
     FM251700 17012KT P6SM OVC060
     FM252300 18010KT P6SM VCSH OVC035
     FM260100 34016G25KT P6SM -SN OVC030=



000
FTUS43 KEAX 242300
TAFMCI
TAF
KMCI 242331Z 2500/2524 VRB05KT P6SM SKC
     FM250800 15008KT P6SM FEW040 SCT100
     FM251700 17012KT P6SM VCSH OVC040
     FM252200 18010KT P6SM VCSH OVC035=



000
FTUS43 KEAX 242300
TAFSTJ
TAF
KSTJ 242331Z 2500/2524 VRB05KT P6SM SKC
     FM250800 15008KT P6SM FEW040 SCT100
     FM251600 16013KT P6SM VCSH OVC040
     FM252100 17011KT P6SM VCSH OVC035=



000
FTUS43 KEAX 242300
TAFMKC
TAF
KMKC 242331Z 2500/2524 VRB05KT P6SM SKC
     FM250800 15008KT P6SM FEW040 SCT100
     FM251700 17012KT P6SM VCSH OVC040
     FM252200 18010KT P6SM VCSH OVC035=



    US Dept of Commerce
    National Oceanic and Atmospheric Administration
    National Weather Service
    1325 East West Highway
    Silver Spring, MD 20910
    Page Author: NWS Internet Services Team
Disclaimer
Information Quality
Credits
Glossary
Privacy Policy
Freedom of Information Act (FOIA)
About Us
Career Opportunities